sensor_id;sensor_type;location;lat;lon;timestamp;P1;durP1;ratioP1;P2;durP2;ratioP2
77018;SDS011;66044;53.142;17.962;2024-03-23T00:55:51;8.20;;;2.40;;
77018;SDS011;66044;53.142;17.962;2024-03-23T00:58:17;8.60;;;2.40;;
77018;SDS011;66044;53.142;17.962;2024-03-23T01:00:44;11.10;;;2.00;;
77018;SDS011;66044;53.142;17.962;2024-03-23T01:03:10;8.40;;;2.60;;
77018;SDS011;66044;53.142;17.962;2024-03-23T01:05:37;8.30;;;2.50;;
77018;SDS011;66044;53.142;17.962;2024-03-23T01:08:03;8.70;;;2.50;;
77018;SDS011;66044;53.142;17.962;2024-03-23T01:10:30;10.40;;;3.10;;
77018;SDS011;66044;53.142;17.962;2024-03-23T01:12:56;8.50;;;2.70;;
77018;SDS011;66044;53.142;17.962;2024-03-23T01:15:23;8.00;;;2.50;;
77018;SDS011;66044;53.142;17.962;2024-03-23T01:17:49;9.00;;;2.50;;
77018;SDS011;66044;53.142;17.962;2024-03-23T01:20:16;8.60;;;2.60;;
77018;SDS011;66044;53.142;17.962;2024-03-23T01:22:42;8.20;;;2.30;;
77018;SDS011;66044;53.142;17.962;2024-03-23T01:25:09;8.10;;;2.40;;
77018;SDS011;66044;53.142;17.962;2024-03-23T01:27:35;8.60;;;2.20;;
77018;SDS011;66044;53.142;17.962;2024-03-23T01:30:02;9.70;;;2.20;;
77018;SDS011;66044;53.142;17.962;2024-03-23T01:32:28;11.40;;;2.50;;
77018;SDS011;66044;53.142;17.962;2024-03-23T01:34:54;10.30;;;3.00;;
77018;SDS011;66044;53.142;17.962;2024-03-23T01:37:21;8.20;;;2.60;;
77018;SDS011;66044;53.142;17.962;2024-03-23T01:39:47;10.00;;;2.60;;
77018;SDS011;66044;53.142;17.962;2024-03-23T01:42:13;9.00;;;2.90;;
77018;SDS011;66044;53.142;17.962;2024-03-23T01:44:40;8.10;;;2.50;;
77018;SDS011;66044;53.142;17.962;2024-03-23T01:47:07;9.80;;;3.20;;
77018;SDS011;66044;53.142;17.962;2024-03-23T01:49:35;9.10;;;2.90;;
77018;SDS011;66044;53.142;17.962;2024-03-23T01:52:02;7.90;;;2.90;;
77018;SDS011;66044;53.142;17.962;2024-03-23T01:54:28;10.50;;;3.80;;
77018;SDS011;66044;53.142;17.962;2024-03-23T01:56:55;13.10;;;5.10;;
77018;SDS011;66044;53.142;17.962;2024-03-23T01:59:22;16.20;;;7.80;;
77018;SDS011;66044;53.142;17.962;2024-03-23T02:01:49;16.10;;;7.20;;
77018;SDS011;66044;53.142;17.962;2024-03-23T02:04:16;20.40;;;7.90;;
77018;SDS011;66044;53.142;17.962;2024-03-23T02:06:42;17.00;;;8.20;;
77018;SDS011;66044;53.142;17.962;2024-03-23T02:09:08;14.90;;;7.20;;
77018;SDS011;66044;53.142;17.962;2024-03-23T02:11:35;14.80;;;6.60;;
77018;SDS011;66044;53.142;17.962;2024-03-23T02:14:02;11.70;;;5.20;;
77018;SDS011;66044;53.142;17.962;2024-03-23T02:16:28;10.20;;;4.80;;
77018;SDS011;66044;53.142;17.962;2024-03-23T02:18:56;13.60;;;4.70;;
77018;SDS011;66044;53.142;17.962;2024-03-23T02:21:22;9.50;;;4.30;;
77018;SDS011;66044;53.142;17.962;2024-03-23T02:23:48;10.70;;;4.00;;
77018;SDS011;66044;53.142;17.962;2024-03-23T02:26:15;10.90;;;3.50;;
77018;SDS011;66044;53.142;17.962;2024-03-23T02:28:42;9.50;;;2.70;;
77018;SDS011;66044;53.142;17.962;2024-03-23T02:31:09;10.20;;;3.00;;
77018;SDS011;66044;53.142;17.962;2024-03-23T02:33:37;11.80;;;2.70;;
77018;SDS011;66044;53.142;17.962;2024-03-23T02:36:04;8.90;;;2.70;;
77018;SDS011;66044;53.142;17.962;2024-03-23T02:38:30;10.00;;;2.80;;
77018;SDS011;66044;53.142;17.962;2024-03-23T02:41:01;10.50;;;3.00;;
77018;SDS011;66044;53.142;17.962;2024-03-23T02:43:31;9.40;;;2.50;;
77018;SDS011;66044;53.142;17.962;2024-03-23T02:45:57;9.30;;;2.60;;
77018;SDS011;66044;53.142;17.962;2024-03-23T02:48:24;6.90;;;2.30;;
77018;SDS011;66044;53.142;17.962;2024-03-23T02:50:50;9.80;;;2.60;;
77018;SDS011;66044;53.142;17.962;2024-03-23T02:53:17;9.00;;;2.60;;
77018;SDS011;66044;53.142;17.962;2024-03-23T02:55:43;8.80;;;2.10;;
77018;SDS011;66044;53.142;17.962;2024-03-23T02:58:09;7.90;;;2.50;;
77018;SDS011;66044;53.142;17.962;2024-03-23T03:00:36;7.50;;;2.00;;
77018;SDS011;66044;53.142;17.962;2024-03-23T03:03:02;8.20;;;2.10;;
77018;SDS011;66044;53.142;17.962;2024-03-23T03:05:29;10.20;;;2.50;;
77018;SDS011;66044;53.142;17.962;2024-03-23T03:07:56;10.20;;;2.60;;
77018;SDS011;66044;53.142;17.962;2024-03-23T03:10:22;9.70;;;2.50;;
77018;SDS011;66044;53.142;17.962;2024-03-23T03:12:48;9.40;;;2.60;;
77018;SDS011;66044;53.142;17.962;2024-03-23T03:15:15;7.40;;;2.40;;
77018;SDS011;66044;53.142;17.962;2024-03-23T03:17:41;7.40;;;2.30;;
77018;SDS011;66044;53.142;17.962;2024-03-23T03:20:07;8.30;;;2.60;;
77018;SDS011;66044;53.142;17.962;2024-03-23T03:22:39;8.00;;;2.30;;
77018;SDS011;66044;53.142;17.962;2024-03-23T03:25:05;9.50;;;2.80;;
77018;SDS011;66044;53.142;17.962;2024-03-23T03:27:33;7.50;;;2.60;;
77018;SDS011;66044;53.142;17.962;2024-03-23T03:30:00;8.50;;;2.80;;
77018;SDS011;66044;53.142;17.962;2024-03-23T03:32:32;9.70;;;2.70;;
77018;SDS011;66044;53.142;17.962;2024-03-23T03:34:58;9.10;;;2.80;;
77018;SDS011;66044;53.142;17.962;2024-03-23T03:37:25;9.30;;;3.40;;
77018;SDS011;66044;53.142;17.962;2024-03-23T03:39:51;11.20;;;3.40;;
77018;SDS011;66044;53.142;17.962;2024-03-23T03:42:17;11.80;;;4.00;;
77018;SDS011;66044;53.142;17.962;2024-03-23T03:44:44;8.80;;;3.00;;
77018;SDS011;66044;53.142;17.962;2024-03-23T03:47:10;9.70;;;3.50;;
77018;SDS011;66044;53.142;17.962;2024-03-23T03:49:38;11.30;;;3.50;;
77018;SDS011;66044;53.142;17.962;2024-03-23T03:52:04;12.00;;;3.90;;
77018;SDS011;66044;53.142;17.962;2024-03-23T03:54:30;9.60;;;3.30;;
77018;SDS011;66044;53.142;17.962;2024-03-23T03:56:57;15.20;;;3.40;;
77018;SDS011;66044;53.142;17.962;2024-03-23T03:59:23;8.00;;;3.10;;
77018;SDS011;66044;53.142;17.962;2024-03-23T04:01:50;10.20;;;3.80;;
77018;SDS011;66044;53.142;17.962;2024-03-23T04:04:16;8.70;;;3.70;;
77018;SDS011;66044;53.142;17.962;2024-03-23T04:06:43;10.70;;;4.40;;
77018;SDS011;66044;53.142;17.962;2024-03-23T04:09:10;12.60;;;4.80;;
77018;SDS011;66044;53.142;17.962;2024-03-23T04:11:36;13.00;;;5.30;;
77018;SDS011;66044;53.142;17.962;2024-03-23T04:14:02;11.90;;;5.10;;
77018;SDS011;66044;53.142;17.962;2024-03-23T04:16:30;12.60;;;4.60;;
77018;SDS011;66044;53.142;17.962;2024-03-23T04:19:00;12.90;;;4.40;;
77018;SDS011;66044;53.142;17.962;2024-03-23T04:21:27;12.80;;;3.80;;
77018;SDS011;66044;53.142;17.962;2024-03-23T04:23:53;10.30;;;3.40;;
77018;SDS011;66044;53.142;17.962;2024-03-23T04:26:20;11.20;;;3.50;;
77018;SDS011;66044;53.142;17.962;2024-03-23T04:28:46;12.70;;;3.10;;
77018;SDS011;66044;53.142;17.962;2024-03-23T04:31:13;10.40;;;3.20;;
77018;SDS011;66044;53.142;17.962;2024-03-23T04:33:39;7.90;;;2.30;;
77018;SDS011;66044;53.142;17.962;2024-03-23T04:36:05;10.60;;;2.90;;
77018;SDS011;66044;53.142;17.962;2024-03-23T04:38:33;13.40;;;3.50;;
77018;SDS011;66044;53.142;17.962;2024-03-23T04:41:00;9.80;;;2.50;;
77018;SDS011;66044;53.142;17.962;2024-03-23T04:43:26;12.40;;;3.20;;
77018;SDS011;66044;53.142;17.962;2024-03-23T04:45:52;8.60;;;2.60;;
77018;SDS011;66044;53.142;17.962;2024-03-23T04:48:22;8.00;;;2.20;;
77018;SDS011;66044;53.142;17.962;2024-03-23T04:50:49;9.00;;;2.60;;
77018;SDS011;66044;53.142;17.962;2024-03-23T04:53:16;10.20;;;3.00;;
77018;SDS011;66044;53.142;17.962;2024-03-23T04:55:43;10.20;;;2.70;;
77018;SDS011;66044;53.142;17.962;2024-03-23T04:58:10;10.10;;;2.60;;
77018;SDS011;66044;53.142;17.962;2024-03-23T05:00:36;11.00;;;2.90;;
77018;SDS011;66044;53.142;17.962;2024-03-23T05:03:02;9.90;;;2.60;;
77018;SDS011;66044;53.142;17.962;2024-03-23T05:05:30;9.20;;;2.60;;
77018;SDS011;66044;53.142;17.962;2024-03-23T05:07:57;8.50;;;2.10;;
77018;SDS011;66044;53.142;17.962;2024-03-23T05:10:24;9.80;;;2.50;;
77018;SDS011;66044;53.142;17.962;2024-03-23T05:12:54;11.20;;;2.60;;
77018;SDS011;66044;53.142;17.962;2024-03-23T05:15:20;8.80;;;2.50;;
77018;SDS011;66044;53.142;17.962;2024-03-23T05:17:46;8.20;;;2.10;;
77018;SDS011;66044;53.142;17.962;2024-03-23T05:20:13;10.50;;;2.10;;
77018;SDS011;66044;53.142;17.962;2024-03-23T05:22:39;9.90;;;2.70;;
77018;SDS011;66044;53.142;17.962;2024-03-23T05:25:06;7.70;;;2.20;;
77018;SDS011;66044;53.142;17.962;2024-03-23T05:27:33;9.00;;;2.70;;
77018;SDS011;66044;53.142;17.962;2024-03-23T05:30:00;11.50;;;2.80;;
77018;SDS011;66044;53.142;17.962;2024-03-23T05:32:26;10.30;;;2.80;;
77018;SDS011;66044;53.142;17.962;2024-03-23T05:34:53;10.40;;;3.00;;
77018;SDS011;66044;53.142;17.962;2024-03-23T05:37:23;8.50;;;2.60;;
77018;SDS011;66044;53.142;17.962;2024-03-23T05:39:50;8.70;;;2.50;;
77018;SDS011;66044;53.142;17.962;2024-03-23T05:42:16;9.10;;;2.70;;
77018;SDS011;66044;53.142;17.962;2024-03-23T05:44:46;9.60;;;2.60;;
77018;SDS011;66044;53.142;17.962;2024-03-23T05:47:13;11.20;;;3.00;;
77018;SDS011;66044;53.142;17.962;2024-03-23T05:49:41;15.30;;;3.50;;
77018;SDS011;66044;53.142;17.962;2024-03-23T05:52:10;10.10;;;3.00;;
77018;SDS011;66044;53.142;17.962;2024-03-23T05:54:36;11.60;;;3.60;;
77018;SDS011;66044;53.142;17.962;2024-03-23T05:57:03;9.40;;;2.50;;
77018;SDS011;66044;53.142;17.962;2024-03-23T05:59:30;13.50;;;3.40;;
77018;SDS011;66044;53.142;17.962;2024-03-23T06:01:57;14.50;;;3.60;;
77018;SDS011;66044;53.142;17.962;2024-03-23T06:04:23;11.20;;;3.10;;
77018;SDS011;66044;53.142;17.962;2024-03-23T06:06:50;9.60;;;2.80;;
77018;SDS011;66044;53.142;17.962;2024-03-23T06:09:18;10.50;;;3.10;;
77018;SDS011;66044;53.142;17.962;2024-03-23T06:11:45;8.40;;;2.80;;
77018;SDS011;66044;53.142;17.962;2024-03-23T06:14:14;11.30;;;2.70;;
77018;SDS011;66044;53.142;17.962;2024-03-23T06:16:41;9.10;;;2.70;;
77018;SDS011;66044;53.142;17.962;2024-03-23T06:19:08;8.50;;;2.60;;
77018;SDS011;66044;53.142;17.962;2024-03-23T06:21:36;12.00;;;3.00;;
77018;SDS011;66044;53.142;17.962;2024-03-23T06:24:03;10.00;;;2.90;;
77018;SDS011;66044;53.142;17.962;2024-03-23T06:26:29;11.00;;;3.40;;
77018;SDS011;66044;53.142;17.962;2024-03-23T06:28:56;10.10;;;3.30;;
77018;SDS011;66044;53.142;17.962;2024-03-23T06:31:22;8.60;;;2.90;;
77018;SDS011;66044;53.142;17.962;2024-03-23T06:33:49;9.40;;;3.10;;
77018;SDS011;66044;53.142;17.962;2024-03-23T06:36:15;8.80;;;2.60;;
77018;SDS011;66044;53.142;17.962;2024-03-23T06:38:41;12.80;;;3.80;;
77018;SDS011;66044;53.142;17.962;2024-03-23T06:41:08;12.10;;;2.80;;
77018;SDS011;66044;53.142;17.962;2024-03-23T06:43:34;9.10;;;3.10;;
77018;SDS011;66044;53.142;17.962;2024-03-23T06:46:02;11.50;;;3.90;;
77018;SDS011;66044;53.142;17.962;2024-03-23T06:48:30;12.10;;;4.20;;
77018;SDS011;66044;53.142;17.962;2024-03-23T06:50:57;13.70;;;5.20;;
77018;SDS011;66044;53.142;17.962;2024-03-23T06:53:24;12.20;;;4.20;;
77018;SDS011;66044;53.142;17.962;2024-03-23T06:55:51;11.20;;;3.70;;
77018;SDS011;66044;53.142;17.962;2024-03-23T06:58:19;12.20;;;4.40;;
77018;SDS011;66044;53.142;17.962;2024-03-23T07:00:46;12.70;;;4.10;;
77018;SDS011;66044;53.142;17.962;2024-03-23T07:03:13;13.60;;;4.90;;
77018;SDS011;66044;53.142;17.962;2024-03-23T07:05:40;12.20;;;4.90;;
77018;SDS011;66044;53.142;17.962;2024-03-23T07:08:08;12.00;;;3.80;;
77018;SDS011;66044;53.142;17.962;2024-03-23T07:10:34;10.90;;;4.00;;
77018;SDS011;66044;53.142;17.962;2024-03-23T07:13:01;10.80;;;3.90;;
77018;SDS011;66044;53.142;17.962;2024-03-23T07:15:28;11.00;;;4.30;;
77018;SDS011;66044;53.142;17.962;2024-03-23T07:17:54;11.00;;;4.00;;
77018;SDS011;66044;53.142;17.962;2024-03-23T07:20:20;11.10;;;4.60;;
77018;SDS011;66044;53.142;17.962;2024-03-23T07:22:47;11.80;;;3.90;;
77018;SDS011;66044;53.142;17.962;2024-03-23T07:25:13;11.80;;;4.10;;
77018;SDS011;66044;53.142;17.962;2024-03-23T07:27:40;10.80;;;4.40;;
77018;SDS011;66044;53.142;17.962;2024-03-23T07:30:07;13.20;;;4.40;;
77018;SDS011;66044;53.142;17.962;2024-03-23T07:32:35;13.10;;;4.80;;
77018;SDS011;66044;53.142;17.962;2024-03-23T07:35:02;11.10;;;4.90;;
77018;SDS011;66044;53.142;17.962;2024-03-23T07:37:30;12.00;;;4.00;;
77018;SDS011;66044;53.142;17.962;2024-03-23T07:39:57;12.20;;;4.60;;
77018;SDS011;66044;53.142;17.962;2024-03-23T07:42:24;13.20;;;4.80;;
77018;SDS011;66044;53.142;17.962;2024-03-23T07:44:52;10.40;;;4.40;;
77018;SDS011;66044;53.142;17.962;2024-03-23T07:47:21;12.30;;;4.80;;
77018;SDS011;66044;53.142;17.962;2024-03-23T07:49:47;11.00;;;4.30;;
77018;SDS011;66044;53.142;17.962;2024-03-23T07:52:13;10.30;;;3.80;;
77018;SDS011;66044;53.142;17.962;2024-03-23T07:54:40;15.00;;;6.10;;
77018;SDS011;66044;53.142;17.962;2024-03-23T07:57:06;17.10;;;7.30;;
77018;SDS011;66044;53.142;17.962;2024-03-23T07:59:33;19.50;;;8.70;;
77018;SDS011;66044;53.142;17.962;2024-03-23T08:02:00;26.70;;;12.00;;
77018;SDS011;66044;53.142;17.962;2024-03-23T08:04:29;20.10;;;9.00;;
77018;SDS011;66044;53.142;17.962;2024-03-23T08:06:56;18.00;;;8.10;;
77018;SDS011;66044;53.142;17.962;2024-03-23T08:09:23;21.10;;;9.30;;
77018;SDS011;66044;53.142;17.962;2024-03-23T08:11:49;18.40;;;8.70;;
77018;SDS011;66044;53.142;17.962;2024-03-23T08:14:15;17.30;;;7.80;;
77018;SDS011;66044;53.142;17.962;2024-03-23T08:16:42;16.30;;;7.10;;
77018;SDS011;66044;53.142;17.962;2024-03-23T08:19:14;16.50;;;6.00;;
77018;SDS011;66044;53.142;17.962;2024-03-23T08:21:41;14.30;;;5.40;;
77018;SDS011;66044;53.142;17.962;2024-03-23T08:24:08;13.50;;;4.70;;
77018;SDS011;66044;53.142;17.962;2024-03-23T08:26:34;9.30;;;3.40;;
77018;SDS011;66044;53.142;17.962;2024-03-23T08:29:01;12.40;;;4.40;;
77018;SDS011;66044;53.142;17.962;2024-03-23T08:31:28;9.60;;;2.90;;
77018;SDS011;66044;53.142;17.962;2024-03-23T08:33:54;9.30;;;3.10;;
77018;SDS011;66044;53.142;17.962;2024-03-23T08:36:20;8.50;;;2.60;;
77018;SDS011;66044;53.142;17.962;2024-03-23T08:38:47;10.40;;;3.20;;
77018;SDS011;66044;53.142;17.962;2024-03-23T08:41:13;11.40;;;2.90;;
77018;SDS011;66044;53.142;17.962;2024-03-23T08:43:40;10.30;;;3.10;;
77018;SDS011;66044;53.142;17.962;2024-03-23T08:46:08;7.00;;;2.20;;
77018;SDS011;66044;53.142;17.962;2024-03-23T08:48:39;12.00;;;2.70;;
77018;SDS011;66044;53.142;17.962;2024-03-23T08:51:10;11.70;;;2.90;;
77018;SDS011;66044;53.142;17.962;2024-03-23T08:53:40;8.80;;;2.10;;
77018;SDS011;66044;53.142;17.962;2024-03-23T08:56:07;8.70;;;2.20;;
77018;SDS011;66044;53.142;17.962;2024-03-23T08:58:36;7.20;;;2.10;;
77018;SDS011;66044;53.142;17.962;2024-03-23T09:01:04;8.20;;;2.00;;
77018;SDS011;66044;53.142;17.962;2024-03-23T09:03:33;7.80;;;1.90;;
77018;SDS011;66044;53.142;17.962;2024-03-23T09:06:00;8.50;;;2.20;;
77018;SDS011;66044;53.142;17.962;2024-03-23T09:08:27;7.60;;;2.00;;
77018;SDS011;66044;53.142;17.962;2024-03-23T09:10:53;8.30;;;1.90;;
77018;SDS011;66044;53.142;17.962;2024-03-23T09:13:20;11.30;;;3.00;;
77018;SDS011;66044;53.142;17.962;2024-03-23T09:15:50;9.60;;;2.40;;
77018;SDS011;66044;53.142;17.962;2024-03-23T09:18:22;8.50;;;2.10;;
77018;SDS011;66044;53.142;17.962;2024-03-23T09:20:48;7.60;;;2.00;;
77018;SDS011;66044;53.142;17.962;2024-03-23T09:23:15;7.20;;;2.10;;
77018;SDS011;66044;53.142;17.962;2024-03-23T09:25:41;8.50;;;2.20;;
77018;SDS011;66044;53.142;17.962;2024-03-23T09:28:08;7.30;;;1.70;;
77018;SDS011;66044;53.142;17.962;2024-03-23T09:30:35;6.10;;;1.70;;
77018;SDS011;66044;53.142;17.962;2024-03-23T09:33:10;7.00;;;2.00;;
77018;SDS011;66044;53.142;17.962;2024-03-23T09:35:41;6.70;;;1.90;;
77018;SDS011;66044;53.142;17.962;2024-03-23T09:38:11;8.60;;;2.20;;
77018;SDS011;66044;53.142;17.962;2024-03-23T09:40:41;6.60;;;1.70;;
77018;SDS011;66044;53.142;17.962;2024-03-23T09:43:09;8.10;;;2.40;;
77018;SDS011;66044;53.142;17.962;2024-03-23T09:45:40;9.10;;;2.10;;
77018;SDS011;66044;53.142;17.962;2024-03-23T09:48:08;6.90;;;2.00;;
77018;SDS011;66044;53.142;17.962;2024-03-23T09:50:45;7.60;;;2.20;;
77018;SDS011;66044;53.142;17.962;2024-03-23T09:53:12;6.80;;;2.20;;
77018;SDS011;66044;53.142;17.962;2024-03-23T09:55:41;8.70;;;1.90;;
77018;SDS011;66044;53.142;17.962;2024-03-23T09:58:12;6.30;;;1.70;;
77018;SDS011;66044;53.142;17.962;2024-03-23T10:00:39;6.70;;;2.10;;
77018;SDS011;66044;53.142;17.962;2024-03-23T10:03:06;9.00;;;2.30;;
77018;SDS011;66044;53.142;17.962;2024-03-23T10:05:33;6.30;;;2.10;;
77018;SDS011;66044;53.142;17.962;2024-03-23T10:08:00;8.40;;;2.70;;
77018;SDS011;66044;53.142;17.962;2024-03-23T10:10:45;7.80;;;2.30;;
77018;SDS011;66044;53.142;17.962;2024-03-23T10:13:25;7.60;;;2.40;;
77018;SDS011;66044;53.142;17.962;2024-03-23T10:15:56;7.30;;;1.80;;
77018;SDS011;66044;53.142;17.962;2024-03-23T10:18:25;6.30;;;1.60;;
77018;SDS011;66044;53.142;17.962;2024-03-23T10:21:09;5.40;;;1.50;;
77018;SDS011;66044;53.142;17.962;2024-03-23T10:23:42;6.90;;;1.50;;
77018;SDS011;66044;53.142;17.962;2024-03-23T10:28:54;6.40;;;1.50;;
77018;SDS011;66044;53.142;17.962;2024-03-23T10:31:25;5.60;;;1.30;;
77018;SDS011;66044;53.142;17.962;2024-03-23T10:33:51;5.60;;;1.20;;
77018;SDS011;66044;53.142;17.962;2024-03-23T10:36:21;5.10;;;1.30;;
77018;SDS011;66044;53.142;17.962;2024-03-23T10:38:50;5.90;;;1.30;;
77018;SDS011;66044;53.142;17.962;2024-03-23T10:41:20;5.20;;;1.30;;
77018;SDS011;66044;53.142;17.962;2024-03-23T10:43:47;5.90;;;1.30;;
77018;SDS011;66044;53.142;17.962;2024-03-23T10:46:15;4.80;;;1.10;;
77018;SDS011;66044;53.142;17.962;2024-03-23T10:48:43;4.70;;;1.20;;
77018;SDS011;66044;53.142;17.962;2024-03-23T10:51:10;4.20;;;1.20;;
77018;SDS011;66044;53.142;17.962;2024-03-23T10:53:37;7.20;;;1.30;;
77018;SDS011;66044;53.142;17.962;2024-03-23T10:56:04;6.60;;;1.20;;
77018;SDS011;66044;53.142;17.962;2024-03-23T10:58:35;4.30;;;1.10;;
77018;SDS011;66044;53.142;17.962;2024-03-23T11:01:05;7.70;;;1.40;;
77018;SDS011;66044;53.142;17.962;2024-03-23T11:03:32;6.00;;;1.60;;
77018;SDS011;66044;53.142;17.962;2024-03-23T11:06:03;4.60;;;1.10;;
77018;SDS011;66044;53.142;17.962;2024-03-23T11:08:35;5.00;;;1.10;;
77018;SDS011;66044;53.142;17.962;2024-03-23T11:11:21;6.10;;;1.50;;
77018;SDS011;66044;53.142;17.962;2024-03-23T11:13:50;9.80;;;3.30;;
77018;SDS011;66044;53.142;17.962;2024-03-23T11:16:26;8.50;;;2.60;;
77018;SDS011;66044;53.142;17.962;2024-03-23T11:22:13;9.80;;;3.20;;
77018;SDS011;66044;53.142;17.962;2024-03-23T11:24:51;7.00;;;2.00;;
77018;SDS011;66044;53.142;17.962;2024-03-23T11:27:25;7.10;;;1.70;;
77018;SDS011;66044;53.142;17.962;2024-03-23T11:29:52;7.20;;;1.50;;
77018;SDS011;66044;53.142;17.962;2024-03-23T11:32:18;5.30;;;1.20;;
77018;SDS011;66044;53.142;17.962;2024-03-23T11:34:45;9.20;;;1.80;;
77018;SDS011;66044;53.142;17.962;2024-03-23T11:37:13;7.40;;;2.10;;
77018;SDS011;66044;53.142;17.962;2024-03-23T11:39:40;6.10;;;1.80;;
77018;SDS011;66044;53.142;17.962;2024-03-23T11:42:06;9.30;;;1.80;;
77018;SDS011;66044;53.142;17.962;2024-03-23T11:44:33;5.60;;;1.60;;
77018;SDS011;66044;53.142;17.962;2024-03-23T11:47:17;6.20;;;1.80;;
77018;SDS011;66044;53.142;17.962;2024-03-23T11:49:44;8.20;;;2.00;;
77018;SDS011;66044;53.142;17.962;2024-03-23T11:52:10;8.70;;;1.80;;
77018;SDS011;66044;53.142;17.962;2024-03-23T11:54:37;8.90;;;2.40;;
77018;SDS011;66044;53.142;17.962;2024-03-23T11:57:04;8.20;;;2.40;;
77018;SDS011;66044;53.142;17.962;2024-03-23T11:59:49;11.90;;;4.10;;
77018;SDS011;66044;53.142;17.962;2024-03-23T12:02:16;10.70;;;5.20;;
77018;SDS011;66044;53.142;17.962;2024-03-23T12:04:45;12.00;;;5.00;;
77018;SDS011;66044;53.142;17.962;2024-03-23T12:07:18;8.60;;;3.80;;
77018;SDS011;66044;53.142;17.962;2024-03-23T12:09:47;10.00;;;3.20;;
77018;SDS011;66044;53.142;17.962;2024-03-23T12:12:30;8.20;;;3.00;;
77018;SDS011;66044;53.142;17.962;2024-03-23T12:15:05;10.10;;;4.90;;
77018;SDS011;66044;53.142;17.962;2024-03-23T12:17:34;10.80;;;3.40;;
77018;SDS011;66044;53.142;17.962;2024-03-23T12:20:01;8.60;;;3.00;;
77018;SDS011;66044;53.142;17.962;2024-03-23T12:22:28;7.40;;;2.40;;
77018;SDS011;66044;53.142;17.962;2024-03-23T12:24:57;8.90;;;3.00;;
77018;SDS011;66044;53.142;17.962;2024-03-23T12:27:24;8.30;;;3.40;;
77018;SDS011;66044;53.142;17.962;2024-03-23T12:29:50;7.40;;;2.70;;
77018;SDS011;66044;53.142;17.962;2024-03-23T12:32:16;10.00;;;2.90;;
77018;SDS011;66044;53.142;17.962;2024-03-23T12:34:44;14.00;;;5.20;;
77018;SDS011;66044;53.142;17.962;2024-03-23T12:37:11;12.90;;;4.90;;
77018;SDS011;66044;53.142;17.962;2024-03-23T12:39:38;10.10;;;4.20;;
77018;SDS011;66044;53.142;17.962;2024-03-23T12:42:05;11.20;;;4.20;;
77018;SDS011;66044;53.142;17.962;2024-03-23T12:44:31;14.10;;;5.30;;
77018;SDS011;66044;53.142;17.962;2024-03-23T12:46:58;9.70;;;4.10;;
77018;SDS011;66044;53.142;17.962;2024-03-23T12:49:25;11.10;;;4.60;;
77018;SDS011;66044;53.142;17.962;2024-03-23T12:51:54;9.80;;;3.70;;
77018;SDS011;66044;53.142;17.962;2024-03-23T12:54:22;8.70;;;3.80;;
77018;SDS011;66044;53.142;17.962;2024-03-23T12:56:49;10.40;;;3.90;;
77018;SDS011;66044;53.142;17.962;2024-03-23T12:59:16;9.70;;;4.20;;
77018;SDS011;66044;53.142;17.962;2024-03-23T13:01:42;10.50;;;4.90;;
77018;SDS011;66044;53.142;17.962;2024-03-23T13:04:12;11.00;;;4.70;;
77018;SDS011;66044;53.142;17.962;2024-03-23T13:06:38;10.20;;;4.80;;
77018;SDS011;66044;53.142;17.962;2024-03-23T13:09:05;12.50;;;4.60;;
77018;SDS011;66044;53.142;17.962;2024-03-23T13:11:31;8.90;;;3.00;;
77018;SDS011;66044;53.142;17.962;2024-03-23T13:13:58;10.20;;;3.00;;
77018;SDS011;66044;53.142;17.962;2024-03-23T13:16:24;8.50;;;2.60;;
77018;SDS011;66044;53.142;17.962;2024-03-23T13:18:50;7.90;;;3.00;;
77018;SDS011;66044;53.142;17.962;2024-03-23T13:21:17;7.70;;;3.10;;
77018;SDS011;66044;53.142;17.962;2024-03-23T13:23:47;7.30;;;2.30;;
77018;SDS011;66044;53.142;17.962;2024-03-23T13:26:16;9.60;;;2.80;;
77018;SDS011;66044;53.142;17.962;2024-03-23T13:28:42;7.30;;;2.50;;
77018;SDS011;66044;53.142;17.962;2024-03-23T13:31:10;10.80;;;4.00;;
77018;SDS011;66044;53.142;17.962;2024-03-23T13:33:37;8.90;;;3.10;;
77018;SDS011;66044;53.142;17.962;2024-03-23T13:36:03;7.80;;;2.80;;
77018;SDS011;66044;53.142;17.962;2024-03-23T13:38:30;8.30;;;3.70;;
77018;SDS011;66044;53.142;17.962;2024-03-23T13:40:57;8.70;;;3.60;;
77018;SDS011;66044;53.142;17.962;2024-03-23T13:43:26;10.30;;;3.70;;
77018;SDS011;66044;53.142;17.962;2024-03-23T13:45:55;11.80;;;4.60;;
77018;SDS011;66044;53.142;17.962;2024-03-23T13:48:23;10.10;;;3.90;;
77018;SDS011;66044;53.142;17.962;2024-03-23T13:50:57;8.00;;;2.80;;
77018;SDS011;66044;53.142;17.962;2024-03-23T13:53:26;7.90;;;2.90;;
77018;SDS011;66044;53.142;17.962;2024-03-23T13:55:53;7.60;;;2.80;;
77018;SDS011;66044;53.142;17.962;2024-03-23T13:58:20;9.00;;;2.40;;
77018;SDS011;66044;53.142;17.962;2024-03-23T14:00:47;5.80;;;1.60;;
77018;SDS011;66044;53.142;17.962;2024-03-23T14:03:13;5.20;;;1.40;;
77018;SDS011;66044;53.142;17.962;2024-03-23T14:05:40;6.20;;;2.10;;
77018;SDS011;66044;53.142;17.962;2024-03-23T14:08:07;4.20;;;1.40;;
77018;SDS011;66044;53.142;17.962;2024-03-23T14:10:35;5.30;;;1.10;;
77018;SDS011;66044;53.142;17.962;2024-03-23T14:13:02;4.10;;;1.00;;
77018;SDS011;66044;53.142;17.962;2024-03-23T14:15:29;4.50;;;1.10;;
77018;SDS011;66044;53.142;17.962;2024-03-23T14:17:56;4.00;;;1.10;;
77018;SDS011;66044;53.142;17.962;2024-03-23T14:20:23;5.30;;;1.50;;
77018;SDS011;66044;53.142;17.962;2024-03-23T14:22:50;5.80;;;1.60;;
77018;SDS011;66044;53.142;17.962;2024-03-23T14:25:17;5.30;;;1.10;;
77018;SDS011;66044;53.142;17.962;2024-03-23T14:27:44;4.60;;;1.20;;
77018;SDS011;66044;53.142;17.962;2024-03-23T14:30:11;3.90;;;1.30;;
77018;SDS011;66044;53.142;17.962;2024-03-23T14:32:38;5.40;;;1.30;;
77018;SDS011;66044;53.142;17.962;2024-03-23T14:35:05;5.10;;;1.30;;
77018;SDS011;66044;53.142;17.962;2024-03-23T14:37:39;5.80;;;1.40;;
77018;SDS011;66044;53.142;17.962;2024-03-23T14:40:08;5.50;;;1.50;;
77018;SDS011;66044;53.142;17.962;2024-03-23T14:42:34;5.30;;;1.50;;
77018;SDS011;66044;53.142;17.962;2024-03-23T14:45:01;5.90;;;1.60;;
77018;SDS011;66044;53.142;17.962;2024-03-23T14:47:28;7.00;;;2.00;;
77018;SDS011;66044;53.142;17.962;2024-03-23T14:49:54;7.20;;;1.60;;
77018;SDS011;66044;53.142;17.962;2024-03-23T14:52:20;4.00;;;0.90;;
77018;SDS011;66044;53.142;17.962;2024-03-23T14:54:47;5.80;;;1.40;;
77018;SDS011;66044;53.142;17.962;2024-03-23T14:57:13;5.30;;;1.50;;
77018;SDS011;66044;53.142;17.962;2024-03-23T14:59:39;6.30;;;2.10;;
77018;SDS011;66044;53.142;17.962;2024-03-23T15:02:07;6.80;;;2.20;;
77018;SDS011;66044;53.142;17.962;2024-03-23T15:04:33;11.80;;;5.90;;
77018;SDS011;66044;53.142;17.962;2024-03-23T15:07:00;12.00;;;4.90;;
77018;SDS011;66044;53.142;17.962;2024-03-23T15:09:27;15.50;;;4.50;;
77018;SDS011;66044;53.142;17.962;2024-03-23T15:11:54;14.70;;;5.30;;
77018;SDS011;66044;53.142;17.962;2024-03-23T15:14:23;14.90;;;4.60;;
77018;SDS011;66044;53.142;17.962;2024-03-23T15:16:50;12.40;;;3.90;;
77018;SDS011;66044;53.142;17.962;2024-03-23T15:19:17;9.20;;;2.60;;
77018;SDS011;66044;53.142;17.962;2024-03-23T15:21:43;12.50;;;3.00;;
77018;SDS011;66044;53.142;17.962;2024-03-23T15:24:10;15.20;;;4.10;;
77018;SDS011;66044;53.142;17.962;2024-03-23T15:26:39;12.40;;;2.70;;
77018;SDS011;66044;53.142;17.962;2024-03-23T15:29:07;7.70;;;2.40;;
77018;SDS011;66044;53.142;17.962;2024-03-23T15:31:38;8.50;;;2.20;;